createdAt,value
2017-07-09T00:02:18.639Z,101001.91
2017-07-09T00:04:46.031Z,101008.27
2017-07-09T00:07:13.434Z,101002.16
2017-07-09T00:09:40.824Z,100992.07
2017-07-09T00:12:08.224Z,100993.49
2017-07-09T00:14:35.903Z,100995.72
2017-07-09T00:17:03.309Z,100992.99
2017-07-09T00:19:30.700Z,100991.28
2017-07-09T00:21:58.099Z,100993.33
2017-07-09T00:24:25.483Z,100989.44
2017-07-09T00:26:52.888Z,100987.01
2017-07-09T00:29:20.331Z,100987.48
2017-07-09T00:31:47.727Z,101002.70
2017-07-09T00:34:15.115Z,101015.26
2017-07-09T00:36:42.536Z,101012.00
2017-07-09T00:39:09.945Z,101008.56
2017-07-09T00:41:37.619Z,101003.08
2017-07-09T00:44:05.034Z,101008.69
2017-07-09T00:46:32.423Z,101010.45
2017-07-09T00:48:59.823Z,101002.63
2017-07-09T00:51:27.215Z,101001.49
2017-07-09T00:53:54.640Z,101002.16
2017-07-09T00:56:22.019Z,100998.56
2017-07-09T00:58:49.415Z,100999.27
2017-07-09T01:01:16.799Z,101004.13
2017-07-09T01:03:44.201Z,101000.73
2017-07-09T01:06:11.595Z,100988.14
2017-07-09T01:08:39.000Z,100996.59
2017-07-09T01:11:06.400Z,100995.80
2017-07-09T01:13:33.799Z,100993.20
2017-07-09T01:16:01.194Z,100997.50
2017-07-09T01:18:28.593Z,100993.54
2017-07-09T01:20:55.985Z,100983.20
2017-07-09T01:23:23.378Z,100984.45
2017-07-09T01:25:50.772Z,100984.75
2017-07-09T01:28:18.167Z,100978.89
2017-07-09T01:30:45.569Z,100970.36
2017-07-09T01:33:12.959Z,100969.02
2017-07-09T01:35:40.352Z,100959.98
2017-07-09T01:38:07.755Z,100952.37
2017-07-09T01:40:35.172Z,100943.84
2017-07-09T01:43:02.582Z,100950.69
2017-07-09T01:45:29.968Z,100946.26
2017-07-09T01:47:57.387Z,100939.57
2017-07-09T01:50:24.785Z,100939.89
2017-07-09T01:52:52.171Z,100935.53
2017-07-09T01:55:19.899Z,100940.03
2017-07-09T01:57:47.278Z,100935.86
2017-07-09T02:00:14.680Z,100946.31
2017-07-09T02:02:42.080Z,100949.63
2017-07-09T02:05:09.491Z,100946.23
2017-07-09T02:07:36.873Z,100950.80
2017-07-09T02:10:04.283Z,100956.63
2017-07-09T02:12:31.675Z,100954.38
2017-07-09T02:14:59.067Z,100963.79
2017-07-09T02:17:26.459Z,100962.52
2017-07-09T02:19:53.859Z,100958.53
2017-07-09T02:22:21.247Z,100944.56
2017-07-09T02:24:48.664Z,100949.56
2017-07-09T02:27:16.065Z,100956.41
2017-07-09T02:29:43.457Z,100964.88
2017-07-09T02:32:10.857Z,100975.55
2017-07-09T02:34:38.252Z,100983.20
2017-07-09T02:37:05.646Z,100986.89
2017-07-09T02:39:33.047Z,100983.20
2017-07-09T02:42:00.447Z,100982.69
2017-07-09T02:44:27.856Z,100981.64
2017-07-09T02:46:55.268Z,100982.01
2017-07-09T02:49:22.665Z,100984.02
2017-07-09T02:51:50.055Z,100981.59
2017-07-09T02:54:17.452Z,100982.46
2017-07-09T02:56:44.839Z,100989.05
2017-07-09T02:59:12.247Z,100985.06
2017-07-09T03:01:39.640Z,100986.70
2017-07-09T03:04:07.033Z,100984.72
2017-07-09T03:06:34.436Z,100991.08
2017-07-09T03:09:01.823Z,100992.32
2017-07-09T03:11:29.223Z,100988.47
2017-07-09T03:13:56.622Z,100978.73
2017-07-09T03:16:24.026Z,100978.97
2017-07-09T03:18:51.409Z,100979.65
2017-07-09T03:21:18.817Z,100978.68
2017-07-09T03:23:46.213Z,100980.16
2017-07-09T03:26:13.603Z,100976.87
2017-07-09T03:28:41.004Z,100986.36
2017-07-09T03:31:08.395Z,100989.12
2017-07-09T03:33:36.107Z,100988.66
2017-07-09T03:36:03.500Z,100987.28
2017-07-09T03:38:30.898Z,100986.30
2017-07-09T03:40:58.316Z,100987.41
2017-07-09T03:43:25.707Z,100990.98
2017-07-09T03:45:53.108Z,100992.91
2017-07-09T03:48:20.520Z,100997.13
2017-07-09T03:50:47.930Z,100995.98
2017-07-09T03:53:15.320Z,101000.67
2017-07-09T03:55:42.720Z,101013.45
2017-07-09T03:58:10.111Z,101008.29
2017-07-09T04:00:37.510Z,101001.59
2017-07-09T04:03:04.913Z,100994.13
2017-07-09T04:05:32.321Z,100999.00
2017-07-09T04:07:59.724Z,100995.81
2017-07-09T04:10:27.108Z,100982.81
2017-07-09T04:12:54.512Z,100980.05
2017-07-09T04:15:21.924Z,100973.95
2017-07-09T04:17:49.314Z,100975.44
2017-07-09T04:20:16.704Z,100968.52
2017-07-09T04:22:44.106Z,100974.20
2017-07-09T04:25:11.504Z,100975.69
2017-07-09T04:27:38.904Z,100972.09
2017-07-09T04:30:06.291Z,100976.66
2017-07-09T04:32:33.691Z,100984.08
2017-07-09T04:35:01.091Z,100985.27
2017-07-09T04:37:28.488Z,100985.20
2017-07-09T04:39:55.879Z,100987.52
2017-07-09T04:42:23.282Z,100993.94
2017-07-09T04:44:50.663Z,100998.72
2017-07-09T04:47:18.063Z,101000.55
2017-07-09T04:49:45.455Z,101003.16
2017-07-09T04:52:12.855Z,101003.54
2017-07-09T04:54:40.269Z,101002.61
2017-07-09T04:57:07.683Z,101006.56
2017-07-09T04:59:35.075Z,101005.75
2017-07-09T05:02:02.481Z,101006.25
2017-07-09T05:04:29.875Z,101021.58
2017-07-09T05:06:57.271Z,101014.95
2017-07-09T05:09:24.692Z,101014.56
2017-07-09T05:11:52.088Z,101009.87
2017-07-09T05:14:19.482Z,101013.77
2017-07-09T05:16:46.885Z,101010.45
2017-07-09T05:19:14.281Z,101007.70
2017-07-09T05:21:41.680Z,101011.90
2017-07-09T05:24:09.065Z,101013.03
2017-07-09T05:26:37.013Z,101010.64
2017-07-09T05:29:04.408Z,101005.17
2017-07-09T05:31:31.806Z,101004.80
2017-07-09T05:33:59.207Z,101000.48
2017-07-09T05:36:26.604Z,100994.61
2017-07-09T05:38:54.007Z,100993.77
2017-07-09T05:41:21.402Z,100991.17
2017-07-09T05:43:48.809Z,100988.50
2017-07-09T05:46:16.205Z,100981.24
2017-07-09T05:48:43.599Z,100979.42
2017-07-09T05:51:11.219Z,100985.84
2017-07-09T05:53:38.611Z,100984.44
2017-07-09T05:56:06.009Z,100984.77
2017-07-09T05:58:33.403Z,100980.61
2017-07-09T06:01:00.819Z,100995.09
2017-07-09T06:03:28.225Z,100992.17
2017-07-09T06:05:55.619Z,101000.71
2017-07-09T06:08:23.023Z,101006.41
2017-07-09T06:10:50.410Z,101008.26
2017-07-09T06:13:17.819Z,101013.73
2017-07-09T06:15:45.211Z,100997.09
2017-07-09T06:18:12.615Z,100999.66
2017-07-09T06:20:40.013Z,101002.06
2017-07-09T06:23:07.421Z,100998.55
2017-07-09T06:25:34.832Z,100983.57
2017-07-09T06:28:02.219Z,100982.31
2017-07-09T06:30:29.614Z,100987.17
2017-07-09T06:32:57.260Z,100994.92
2017-07-09T06:35:24.657Z,100988.95
2017-07-09T06:37:52.232Z,100994.39
2017-07-09T06:40:19.948Z,100999.03
2017-07-09T06:42:47.352Z,100996.02
2017-07-09T06:45:14.754Z,100984.43
2017-07-09T06:47:42.180Z,100986.23
2017-07-09T06:50:09.575Z,100982.66
2017-07-09T06:52:36.972Z,100976.55
2017-07-09T06:55:04.384Z,100978.55
2017-07-09T06:57:31.780Z,100980.66
2017-07-09T06:59:59.175Z,100980.69
2017-07-09T07:02:26.568Z,100976.32
2017-07-09T07:04:54.201Z,100979.34
2017-07-09T07:07:21.592Z,100974.39
2017-07-09T07:09:48.989Z,100975.42
2017-07-09T07:12:16.372Z,100982.17
2017-07-09T07:14:43.774Z,100989.00
2017-07-09T07:17:11.175Z,100989.92
2017-07-09T07:19:38.564Z,100982.71
2017-07-09T07:22:05.963Z,100981.50
2017-07-09T07:24:33.359Z,100991.57
2017-07-09T07:27:00.784Z,100990.81
2017-07-09T07:29:28.181Z,100984.84
2017-07-09T07:31:55.571Z,100986.84
2017-07-09T07:34:22.971Z,100993.41
2017-07-09T07:36:50.358Z,100992.67
2017-07-09T07:39:17.756Z,100988.03
2017-07-09T07:41:45.144Z,100978.95
2017-07-09T07:44:12.556Z,100985.91
2017-07-09T07:46:39.944Z,100989.89
2017-07-09T07:49:07.351Z,100984.74
2017-07-09T07:51:34.743Z,100985.52
2017-07-09T07:54:02.143Z,100976.13
2017-07-09T07:56:29.540Z,100974.40
2017-07-09T07:58:56.952Z,100970.48
2017-07-09T08:01:24.344Z,100962.94
2017-07-09T08:03:51.735Z,100964.31
2017-07-09T08:06:19.136Z,100964.82
2017-07-09T08:08:46.526Z,100972.59
2017-07-09T08:11:14.139Z,100973.11
2017-07-09T08:13:41.855Z,100968.36
2017-07-09T08:16:09.259Z,100967.40
2017-07-09T08:18:36.651Z,100969.14
2017-07-09T08:21:04.043Z,100963.83
2017-07-09T08:23:31.436Z,100963.19
2017-07-09T08:25:58.839Z,100954.30
2017-07-09T08:28:26.291Z,100957.81
2017-07-09T08:30:53.700Z,100957.80
2017-07-09T08:33:21.147Z,100955.36
2017-07-09T08:35:48.557Z,100953.70
2017-07-09T08:38:15.958Z,100961.82
2017-07-09T08:40:43.351Z,100949.23
2017-07-09T08:43:10.740Z,100955.16
2017-07-09T08:45:38.136Z,100955.14
2017-07-09T08:48:05.528Z,100951.47
2017-07-09T08:50:32.927Z,100947.08
2017-07-09T08:53:02.937Z,100947.20
2017-07-09T08:55:30.347Z,100930.19
2017-07-09T08:57:57.727Z,100944.11
2017-07-09T09:00:25.127Z,100938.64
2017-07-09T09:02:52.519Z,100936.80
2017-07-09T09:05:19.917Z,100935.85
2017-07-09T09:07:47.303Z,100934.95
2017-07-09T09:10:14.709Z,100931.14
2017-07-09T09:12:42.094Z,100929.64
2017-07-09T09:15:09.486Z,100921.98
2017-07-09T09:17:36.884Z,100914.73
2017-07-09T09:20:04.288Z,100913.95
2017-07-09T09:22:31.680Z,100916.84
2017-07-09T09:24:59.068Z,100916.94
2017-07-09T09:27:26.475Z,100915.30
2017-07-09T09:29:53.885Z,100908.04
2017-07-09T09:32:21.288Z,100902.03
2017-07-09T09:34:48.672Z,100906.16
2017-07-09T09:37:16.407Z,100904.98
2017-07-09T09:39:43.804Z,100909.63
2017-07-09T09:42:11.204Z,100908.72
2017-07-09T09:44:38.596Z,100900.51
2017-07-09T09:47:05.997Z,100901.30
2017-07-09T09:49:33.384Z,100894.61
2017-07-09T09:52:01.044Z,100887.82
2017-07-09T09:54:28.563Z,100891.81
2017-07-09T09:56:55.959Z,100893.55
2017-07-09T09:59:23.359Z,100894.14
2017-07-09T10:01:50.751Z,100894.48
2017-07-09T10:04:18.144Z,100889.98
2017-07-09T10:06:45.544Z,100881.78
2017-07-09T10:09:12.927Z,100870.16
2017-07-09T10:11:40.330Z,100874.59
2017-07-09T10:14:07.719Z,100870.74
2017-07-09T10:16:35.369Z,100871.11
2017-07-09T10:19:02.747Z,100866.06
2017-07-09T10:21:30.424Z,100869.41
2017-07-09T10:23:57.843Z,100874.61
2017-07-09T10:26:25.538Z,100878.74
2017-07-09T10:28:52.936Z,100876.38
2017-07-09T10:31:20.536Z,100871.97
2017-07-09T10:33:47.938Z,100866.59
2017-07-09T10:36:15.323Z,100862.44
2017-07-09T10:38:42.736Z,100862.90
2017-07-09T10:41:10.158Z,100860.55
2017-07-09T10:43:37.563Z,100863.30
2017-07-09T10:46:04.978Z,100863.43
2017-07-09T10:48:32.377Z,100854.40
2017-07-09T10:50:59.771Z,100870.59
2017-07-09T10:53:27.184Z,100863.56
2017-07-09T10:55:54.589Z,100864.11
2017-07-09T10:58:21.985Z,100863.48
2017-07-09T11:00:49.377Z,100865.88
2017-07-09T11:03:16.775Z,100866.64
2017-07-09T11:05:44.171Z,100864.66
2017-07-09T11:08:11.576Z,100861.43
2017-07-09T11:10:38.965Z,100858.99
2017-07-09T11:13:06.363Z,100855.37
2017-07-09T11:15:33.759Z,100856.49
2017-07-09T11:18:01.184Z,100853.30
2017-07-09T11:20:28.587Z,100850.97
2017-07-09T11:22:55.993Z,100849.50
2017-07-09T11:25:23.384Z,100847.48
2017-07-09T11:27:50.780Z,100846.05
2017-07-09T11:30:18.172Z,100842.55
2017-07-09T11:32:45.579Z,100845.98
2017-07-09T11:35:13.174Z,100842.77
2017-07-09T11:37:40.575Z,100849.07
2017-07-09T11:40:07.968Z,100846.90
2017-07-09T11:42:35.388Z,100848.64
2017-07-09T11:45:02.779Z,100854.23
2017-07-09T11:47:30.187Z,100851.74
2017-07-09T11:49:57.583Z,100845.25
2017-07-09T11:52:25.211Z,100848.67
2017-07-09T11:54:52.616Z,100847.88
2017-07-09T11:57:20.008Z,100845.97
2017-07-09T11:59:47.440Z,100839.69
2017-07-09T12:02:14.832Z,100837.26
2017-07-09T12:04:42.228Z,100841.33
2017-07-09T12:07:09.620Z,100839.67
2017-07-09T12:09:37.021Z,100836.83
2017-07-09T12:12:04.426Z,100841.72
2017-07-09T12:14:31.827Z,100834.67
2017-07-09T12:16:59.224Z,100840.48
2017-07-09T12:19:26.623Z,100833.90
2017-07-09T12:21:54.022Z,100836.10
2017-07-09T12:24:21.420Z,100833.55
2017-07-09T12:26:48.808Z,100831.80
2017-07-09T12:29:16.200Z,100830.78
2017-07-09T12:31:43.588Z,100832.03
2017-07-09T12:34:10.998Z,100828.80
2017-07-09T12:36:38.391Z,100818.48
2017-07-09T12:39:05.792Z,100818.61
2017-07-09T12:41:33.195Z,100813.52
2017-07-09T12:44:00.592Z,100813.81
2017-07-09T12:46:27.984Z,100809.22
2017-07-09T12:48:55.392Z,100811.52
2017-07-09T12:51:22.776Z,100808.69
2017-07-09T12:53:50.204Z,100812.81
2017-07-09T12:56:17.588Z,100813.56
2017-07-09T12:58:44.980Z,100813.97
2017-07-09T13:01:12.380Z,100813.97
2017-07-09T13:03:39.784Z,100810.77
2017-07-09T13:06:07.179Z,100806.60
2017-07-09T13:08:34.567Z,100807.44
2017-07-09T13:11:01.970Z,100807.98
2017-07-09T13:13:29.362Z,100805.95
2017-07-09T13:15:57.572Z,100807.80
2017-07-09T13:18:25.252Z,100802.20
2017-07-09T13:20:52.648Z,100802.20
2017-07-09T13:23:20.051Z,100794.06
2017-07-09T13:25:47.440Z,100801.66
2017-07-09T13:28:14.834Z,100798.19
2017-07-09T13:30:42.235Z,100792.63
2017-07-09T13:33:09.629Z,100788.77
2017-07-09T13:35:37.024Z,100793.72
2017-07-09T13:38:04.699Z,100798.56
2017-07-09T13:40:32.097Z,100790.75
2017-07-09T13:42:59.714Z,100794.19
2017-07-09T13:45:27.115Z,100794.99
2017-07-09T13:47:54.507Z,100789.37
2017-07-09T13:50:21.905Z,100788.98
2017-07-09T13:52:49.291Z,100788.88
2017-07-09T13:55:16.695Z,100784.58
2017-07-09T13:57:44.091Z,100791.55
2017-07-09T14:00:11.488Z,100785.22
2017-07-09T14:02:38.882Z,100782.13
2017-07-09T14:05:06.520Z,100775.77
2017-07-09T14:07:33.908Z,100770.56
2017-07-09T14:10:01.634Z,100773.34
2017-07-09T14:12:29.032Z,100762.11
2017-07-09T14:14:56.424Z,100764.91
2017-07-09T14:17:23.824Z,100761.63
2017-07-09T14:19:51.224Z,100758.73
2017-07-09T14:22:18.627Z,100761.81
2017-07-09T14:24:46.043Z,100764.80
2017-07-09T14:27:13.440Z,100761.59
2017-07-09T14:29:40.832Z,100760.27
2017-07-09T14:32:08.241Z,100755.41
2017-07-09T14:34:35.897Z,100750.39
2017-07-09T14:37:03.295Z,100755.19
2017-07-09T14:39:30.692Z,100754.49
2017-07-09T14:41:58.089Z,100748.25
2017-07-09T14:44:25.475Z,100745.03
2017-07-09T14:46:52.899Z,100747.79
2017-07-09T14:49:20.288Z,100746.14
2017-07-09T14:51:47.682Z,100745.25
2017-07-09T14:54:15.072Z,100744.96
2017-07-09T14:56:42.468Z,100741.87
2017-07-09T14:59:10.156Z,100737.81
2017-07-09T15:01:37.555Z,100736.72
2017-07-09T15:04:04.951Z,100735.80
2017-07-09T15:06:32.628Z,100731.67
2017-07-09T15:09:00.075Z,100731.99
2017-07-09T15:11:27.467Z,100727.02
2017-07-09T15:13:54.867Z,100727.33
2017-07-09T15:16:22.264Z,100727.66
2017-07-09T15:18:49.658Z,100725.69
2017-07-09T15:21:17.067Z,100718.59
2017-07-09T15:23:44.467Z,100711.31
2017-07-09T15:26:11.865Z,100707.15
2017-07-09T15:28:39.268Z,100712.16
2017-07-09T15:31:06.670Z,100707.41
2017-07-09T15:33:34.055Z,100704.17
2017-07-09T15:36:01.455Z,100699.57
2017-07-09T15:38:28.852Z,100700.14
2017-07-09T15:40:56.240Z,100699.91
2017-07-09T15:43:23.647Z,100692.07
2017-07-09T15:45:51.041Z,100698.13
2017-07-09T15:48:18.444Z,100691.81
2017-07-09T15:50:46.129Z,100691.95
2017-07-09T15:53:13.532Z,100690.44
2017-07-09T15:55:40.928Z,100689.02
2017-07-09T15:58:08.324Z,100684.09
2017-07-09T16:00:35.738Z,100680.96
2017-07-09T16:03:03.122Z,100678.54
2017-07-09T16:05:30.766Z,100675.41
2017-07-09T16:07:58.164Z,100673.17
2017-07-09T16:10:25.561Z,100675.23
2017-07-09T16:12:52.953Z,100669.91
2017-07-09T16:15:20.347Z,100673.50
2017-07-09T16:17:47.744Z,100675.22
2017-07-09T16:20:15.131Z,100667.89
2017-07-09T16:22:42.533Z,100663.94
2017-07-09T16:25:09.924Z,100666.34
2017-07-09T16:27:37.327Z,100666.06
2017-07-09T16:30:04.720Z,100666.42
2017-07-09T16:32:32.112Z,100663.62
2017-07-09T16:34:59.835Z,100664.08
2017-07-09T16:37:27.230Z,100662.12
2017-07-09T16:39:54.788Z,100655.64
2017-07-09T16:42:22.180Z,100654.58
2017-07-09T16:44:49.571Z,100650.75
2017-07-09T16:47:16.960Z,100646.94
2017-07-09T16:49:44.365Z,100643.77
2017-07-09T16:52:11.760Z,100641.11
2017-07-09T16:54:39.161Z,100638.97
2017-07-09T16:57:06.559Z,100639.63
2017-07-09T16:59:33.967Z,100638.93
2017-07-09T17:02:01.578Z,100635.65
2017-07-09T17:04:28.967Z,100635.84
2017-07-09T17:06:56.367Z,100640.68
2017-07-09T17:09:23.764Z,100627.62
2017-07-09T17:11:51.164Z,100630.67
2017-07-09T17:14:18.636Z,100628.81
2017-07-09T17:16:46.033Z,100622.02
2017-07-09T17:19:13.427Z,100623.23
2017-07-09T17:21:40.826Z,100624.59
2017-07-09T17:24:08.217Z,100618.45
2017-07-09T17:26:35.607Z,100614.52
2017-07-09T17:29:03.012Z,100620.78
2017-07-09T17:31:30.412Z,100613.41
2017-07-09T17:33:57.837Z,100617.30
2017-07-09T17:36:25.228Z,100617.66
2017-07-09T17:38:52.623Z,100609.88
2017-07-09T17:41:20.244Z,100609.07
2017-07-09T17:43:47.684Z,100603.17
2017-07-09T17:46:15.077Z,100604.75
2017-07-09T17:48:42.467Z,100609.05
2017-07-09T17:51:09.862Z,100594.56
2017-07-09T17:53:37.251Z,100598.34
2017-07-09T17:56:04.655Z,100592.03
2017-07-09T17:58:32.048Z,100586.50
2017-07-09T18:00:59.446Z,100590.23
2017-07-09T18:03:26.832Z,100587.07
2017-07-09T18:05:54.240Z,100590.64
2017-07-09T18:08:21.627Z,100594.44
2017-07-09T18:10:49.022Z,100588.48
2017-07-09T18:13:16.416Z,100594.58
2017-07-09T18:15:43.815Z,100588.27
2017-07-09T18:18:11.217Z,100581.42
2017-07-09T18:20:38.607Z,100593.04
2017-07-09T18:23:05.994Z,100593.64
2017-07-09T18:25:33.396Z,100587.97
2017-07-09T18:28:00.784Z,100586.57
2017-07-09T18:30:28.230Z,100583.15
2017-07-09T18:32:55.571Z,100584.98
2017-07-09T18:35:22.964Z,100586.68
2017-07-09T18:37:50.619Z,100590.98
2017-07-09T18:40:18.007Z,100586.86
2017-07-09T18:42:45.399Z,100584.69
2017-07-09T18:45:12.803Z,100584.50
2017-07-09T18:47:40.445Z,100578.06
2017-07-09T18:50:07.847Z,100586.20
2017-07-09T18:52:35.228Z,100586.09
2017-07-09T18:55:02.627Z,100590.21
2017-07-09T18:57:30.272Z,100592.75
2017-07-09T18:59:57.663Z,100597.05
2017-07-09T19:02:25.062Z,100589.49
2017-07-09T19:04:52.460Z,100596.63
2017-07-09T19:07:19.856Z,100602.93
2017-07-09T19:09:47.552Z,100594.28
2017-07-09T19:12:15.212Z,100587.45
2017-07-09T19:14:42.878Z,100590.03
2017-07-09T19:17:10.280Z,100591.20
2017-07-09T19:19:37.673Z,100590.50
2017-07-09T19:22:05.064Z,100597.39
2017-07-09T19:24:32.453Z,100598.86
2017-07-09T19:26:59.857Z,100591.39
2017-07-09T19:29:27.249Z,100594.80
2017-07-09T19:31:54.659Z,100590.63
2017-07-09T19:34:22.056Z,100592.03
2017-07-09T19:36:49.448Z,100587.80
2017-07-09T19:39:16.840Z,100590.44
2017-07-09T19:41:44.232Z,100588.52
2017-07-09T19:44:11.631Z,100592.63
2017-07-09T19:46:39.032Z,100588.21
2017-07-09T19:49:06.424Z,100592.28
2017-07-09T19:51:33.843Z,100593.03
2017-07-09T19:54:01.266Z,100592.68
2017-07-09T19:56:28.671Z,100592.44
2017-07-09T19:58:56.063Z,100590.62
2017-07-09T20:01:23.464Z,100590.44
2017-07-09T20:03:50.851Z,100593.45
2017-07-09T20:06:18.268Z,100589.96
2017-07-09T20:08:45.647Z,100582.96
2017-07-09T20:11:13.051Z,100576.41
2017-07-09T20:13:40.444Z,100577.95
2017-07-09T20:16:07.845Z,100589.69
2017-07-09T20:18:35.247Z,100586.30
2017-07-09T20:21:02.642Z,100588.89
2017-07-09T20:23:30.026Z,100577.15
2017-07-09T20:25:57.422Z,100584.44
2017-07-09T20:28:24.824Z,100590.36
2017-07-09T20:30:52.222Z,100593.94
2017-07-09T20:33:19.618Z,100587.48
2017-07-09T20:35:47.004Z,100575.45
2017-07-09T20:38:14.401Z,100582.70
2017-07-09T20:40:41.796Z,100577.73
2017-07-09T20:43:09.201Z,100575.58
2017-07-09T20:45:36.823Z,100573.24
2017-07-09T20:48:04.226Z,100582.75
2017-07-09T20:50:31.617Z,100580.80
2017-07-09T20:52:59.021Z,100571.37
2017-07-09T20:55:26.408Z,100576.00
2017-07-09T20:57:53.805Z,100575.09
2017-07-09T21:00:21.193Z,100583.60
2017-07-09T21:02:48.595Z,100577.13
2017-07-09T21:05:15.977Z,100570.61
2017-07-09T21:07:43.383Z,100573.96
2017-07-09T21:10:10.779Z,100574.81
2017-07-09T21:12:38.175Z,100572.94
2017-07-09T21:15:05.575Z,100567.77
2017-07-09T21:17:32.976Z,100562.64
2017-07-09T21:20:00.362Z,100565.20
2017-07-09T21:22:27.751Z,100554.30
2017-07-09T21:24:55.147Z,100553.70
2017-07-09T21:27:22.539Z,100553.56
2017-07-09T21:29:49.936Z,100553.27
2017-07-09T21:32:17.328Z,100552.47
2017-07-09T21:34:44.724Z,100549.69
2017-07-09T21:37:12.120Z,100546.03
2017-07-09T21:39:39.738Z,100539.91
2017-07-09T21:42:07.131Z,100541.56
2017-07-09T21:44:34.530Z,100536.22
2017-07-09T21:47:01.921Z,100540.92
2017-07-09T21:49:29.318Z,100541.05
2017-07-09T21:51:56.711Z,100547.40
2017-07-09T21:54:24.114Z,100547.64
2017-07-09T21:56:51.511Z,100548.20
2017-07-09T21:59:18.912Z,100552.07
2017-07-09T22:01:46.308Z,100551.38
2017-07-09T22:04:13.710Z,100552.38
2017-07-09T22:06:41.100Z,100556.77
2017-07-09T22:09:08.502Z,100552.09
2017-07-09T22:11:35.895Z,100554.11
2017-07-09T22:14:03.298Z,100552.30
2017-07-09T22:16:30.687Z,100556.41
2017-07-09T22:18:58.121Z,100549.12
2017-07-09T22:21:25.504Z,100549.52
2017-07-09T22:23:52.907Z,100550.55
2017-07-09T22:26:20.303Z,100548.63
2017-07-09T22:28:47.696Z,100547.62
2017-07-09T22:31:15.412Z,100551.39
2017-07-09T22:33:43.015Z,100539.38
2017-07-09T22:36:10.422Z,100548.74
2017-07-09T22:38:37.804Z,100539.67
2017-07-09T22:41:05.195Z,100538.97
2017-07-09T22:43:32.590Z,100534.75
2017-07-09T22:45:59.989Z,100533.66
2017-07-09T22:48:27.383Z,100528.92
2017-07-09T22:50:54.784Z,100521.67
2017-07-09T22:53:22.183Z,100517.50
2017-07-09T22:55:49.580Z,100514.87
2017-07-09T22:58:16.973Z,100516.79
2017-07-09T23:00:44.386Z,100515.22
2017-07-09T23:03:12.614Z,100507.94
2017-07-09T23:05:40.018Z,100496.80
2017-07-09T23:08:07.415Z,100494.51
2017-07-09T23:10:34.819Z,100494.16
2017-07-09T23:13:02.204Z,100488.27
2017-07-09T23:15:29.601Z,100489.16
2017-07-09T23:17:56.987Z,100481.54
2017-07-09T23:20:24.391Z,100477.86
2017-07-09T23:22:51.787Z,100471.74
2017-07-09T23:25:19.204Z,100464.61
2017-07-09T23:27:46.627Z,100460.10
2017-07-09T23:30:14.034Z,100464.88
2017-07-09T23:32:41.427Z,100461.41
2017-07-09T23:35:08.831Z,100451.89
2017-07-09T23:37:36.233Z,100460.31
2017-07-09T23:40:03.631Z,100452.47
2017-07-09T23:42:31.029Z,100458.78
2017-07-09T23:44:58.694Z,100459.77
2017-07-09T23:47:26.091Z,100459.09
2017-07-09T23:49:53.487Z,100454.20
2017-07-09T23:52:20.899Z,100450.13
2017-07-09T23:54:48.303Z,100438.59
2017-07-09T23:57:15.711Z,100440.04
2017-07-09T23:59:43.108Z,100439.90
